createdAt,value
2022-08-26T00:01:46.666Z,55.48
2022-08-26T00:04:13.689Z,55.30
2022-08-26T00:06:42.559Z,55.17
2022-08-26T00:09:16.136Z,55.45
2022-08-26T00:11:44.716Z,55.74
2022-08-26T00:14:13.834Z,55.83
2022-08-26T00:16:47.826Z,55.82
2022-08-26T00:19:16.386Z,55.56
2022-08-26T00:21:43.438Z,55.63
2022-08-26T00:24:10.324Z,55.41
2022-08-26T00:26:37.150Z,55.26
2022-08-26T00:29:03.643Z,55.54
2022-08-26T00:31:32.683Z,55.45
2022-08-26T00:33:59.396Z,55.51
2022-08-26T00:36:29.565Z,55.81
2022-08-26T00:38:57.204Z,55.58
2022-08-26T00:41:24.021Z,55.66
2022-08-26T00:43:50.928Z,55.84
2022-08-26T00:46:22.032Z,55.71
2022-08-26T00:48:53.839Z,55.52
2022-08-26T00:51:29.783Z,55.79
2022-08-26T00:54:05.457Z,55.58
2022-08-26T00:56:40.425Z,55.58
2022-08-26T00:59:12.018Z,55.87
2022-08-26T01:01:41.164Z,56.14
2022-08-26T01:04:09.553Z,55.84
2022-08-26T01:06:36.508Z,55.98
2022-08-26T01:09:03.549Z,56.02
2022-08-26T01:11:31.150Z,56.29
2022-08-26T01:14:02.733Z,55.96
2022-08-26T01:16:30.218Z,56.29
2022-08-26T01:19:03.508Z,56.02
2022-08-26T01:21:40.552Z,55.92
2022-08-26T01:24:10.309Z,56.46
2022-08-26T01:26:42.755Z,56.21
2022-08-26T01:29:14.877Z,56.35
2022-08-26T01:31:46.289Z,56.25
2022-08-26T01:34:20.426Z,56.42
2022-08-26T01:36:51.379Z,56.56
2022-08-26T01:39:19.209Z,56.63
2022-08-26T01:41:47.181Z,56.84
2022-08-26T01:44:23.724Z,57.02
2022-08-26T01:46:52.804Z,56.95
2022-08-26T01:49:22.110Z,56.81
2022-08-26T01:51:53.636Z,56.82
2022-08-26T01:54:20.951Z,56.69
2022-08-26T01:56:51.022Z,56.95
2022-08-26T01:59:20.237Z,56.93
2022-08-26T02:01:48.059Z,57.08
2022-08-26T02:04:35.070Z,56.93
2022-08-26T02:07:09.618Z,57.20
2022-08-26T02:09:41.310Z,57.12
2022-08-26T02:12:10.488Z,57.21
2022-08-26T02:14:43.854Z,57.11
2022-08-26T02:17:11.278Z,57.19
2022-08-26T02:19:41.678Z,57.25
2022-08-26T02:22:13.948Z,57.43
2022-08-26T02:24:54.337Z,57.41
2022-08-26T02:27:33.577Z,57.31
2022-08-26T02:30:08.294Z,57.35
2022-08-26T02:32:34.933Z,57.52
2022-08-26T02:35:01.784Z,57.85
2022-08-26T02:37:31.354Z,57.58
2022-08-26T02:39:58.223Z,57.65
2022-08-26T02:42:24.847Z,57.72
2022-08-26T02:44:51.728Z,57.91
2022-08-26T02:47:18.234Z,57.66
2022-08-26T02:49:47.279Z,58.02
2022-08-26T02:52:14.649Z,57.77
2022-08-26T02:54:41.115Z,57.77
2022-08-26T02:57:08.140Z,58.03
2022-08-26T02:59:35.974Z,58.12
2022-08-26T03:02:03.211Z,58.31
2022-08-26T03:04:30.380Z,58.40
2022-08-26T03:06:59.900Z,58.34
2022-08-26T03:09:27.876Z,58.24
2022-08-26T03:11:55.410Z,58.49
2022-08-26T03:14:23.882Z,58.57
2022-08-26T03:16:52.282Z,58.38
2022-08-26T03:19:18.742Z,58.29
2022-08-26T03:21:47.334Z,58.44
2022-08-26T03:24:14.668Z,58.40
2022-08-26T03:26:41.178Z,58.49
2022-08-26T03:29:38.847Z,58.57
2022-08-26T03:32:06.091Z,58.65
2022-08-26T03:34:32.559Z,58.62
2022-08-26T03:36:59.074Z,58.64
2022-08-26T03:39:25.591Z,58.76
2022-08-26T03:41:52.390Z,58.88
2022-08-26T03:44:19.901Z,58.85
2022-08-26T03:46:46.564Z,58.73
2022-08-26T03:49:13.217Z,58.77
2022-08-26T03:51:41.652Z,58.71
2022-08-26T03:54:08.821Z,58.74
2022-08-26T03:56:36.510Z,59.02
2022-08-26T03:59:03.357Z,58.62
2022-08-26T04:01:30.719Z,58.86
2022-08-26T04:03:58.205Z,59.01
2022-08-26T04:06:39.379Z,58.90
2022-08-26T04:09:10.096Z,59.19
2022-08-26T04:11:39.442Z,59.11
2022-08-26T04:14:10.189Z,59.34
2022-08-26T04:16:37.127Z,59.63
2022-08-26T04:19:04.085Z,59.21
2022-08-26T04:21:31.016Z,59.35
2022-08-26T04:23:58.336Z,59.46
2022-08-26T04:26:26.006Z,59.35
2022-08-26T04:28:54.584Z,59.61
2022-08-26T04:31:22.649Z,59.74
2022-08-26T04:33:50.737Z,59.68
2022-08-26T04:36:17.709Z,59.97
2022-08-26T04:38:47.210Z,59.78
2022-08-26T04:41:15.437Z,59.84
2022-08-26T04:43:44.653Z,59.96
2022-08-26T04:46:13.731Z,59.86
2022-08-26T04:48:41.247Z,60.07
2022-08-26T04:51:09.113Z,59.89
2022-08-26T04:53:37.281Z,59.85
2022-08-26T04:56:04.699Z,60.12
2022-08-26T04:58:31.893Z,60.34
2022-08-26T05:00:58.459Z,60.27
2022-08-26T05:03:27.355Z,60.28
2022-08-26T05:05:58.218Z,62.01
2022-08-26T05:08:24.906Z,62.89
2022-08-26T05:10:56.039Z,62.79
2022-08-26T05:13:27.415Z,64.11
2022-08-26T05:15:54.633Z,63.91
2022-08-26T05:18:27.393Z,63.31
2022-08-26T05:20:54.898Z,62.73
2022-08-26T05:23:24.243Z,62.88
2022-08-26T05:25:58.408Z,62.42
2022-08-26T05:28:27.061Z,62.53
2022-08-26T05:30:54.358Z,62.32
2022-08-26T05:33:21.921Z,62.50
2022-08-26T05:35:49.002Z,62.31
2022-08-26T05:38:18.342Z,62.16
2022-08-26T05:40:49.076Z,61.95
2022-08-26T05:43:21.061Z,61.97
2022-08-26T05:45:49.886Z,61.62
2022-08-26T05:48:18.890Z,61.57
2022-08-26T05:50:53.951Z,61.61
2022-08-26T05:53:23.930Z,61.70
2022-08-26T05:55:54.404Z,61.43
2022-08-26T05:58:23.328Z,61.50
2022-08-26T06:01:20.315Z,61.00
2022-08-26T06:03:51.598Z,61.28
2022-08-26T06:06:27.812Z,61.10
2022-08-26T06:08:57.834Z,61.03
2022-08-26T06:11:26.050Z,61.21
2022-08-26T06:13:54.441Z,61.15
2022-08-26T06:16:24.074Z,61.19
2022-08-26T06:18:52.592Z,61.00
2022-08-26T06:21:26.524Z,61.08
2022-08-26T06:24:15.149Z,61.15
2022-08-26T06:26:46.825Z,61.18
2022-08-26T06:29:24.717Z,61.36
2022-08-26T06:31:56.271Z,61.39
2022-08-26T06:34:29.656Z,61.27
2022-08-26T06:36:58.493Z,61.36
2022-08-26T06:39:25.111Z,61.68
2022-08-26T06:41:51.998Z,62.06
2022-08-26T06:44:19.382Z,62.35
2022-08-26T06:46:46.330Z,61.87
2022-08-26T06:49:17.662Z,62.38
2022-08-26T06:51:44.560Z,62.23
2022-08-26T06:54:11.391Z,61.99
2022-08-26T06:56:42.980Z,62.11
2022-08-26T06:59:11.653Z,62.56
2022-08-26T07:01:44.525Z,62.62
2022-08-26T07:04:15.551Z,62.83
2022-08-26T07:06:48.704Z,62.89
2022-08-26T07:09:16.827Z,62.87
2022-08-26T07:11:44.477Z,62.72
2022-08-26T07:14:12.083Z,62.68
2022-08-26T07:16:39.936Z,62.75
2022-08-26T07:19:10.654Z,62.41
2022-08-26T07:21:40.202Z,62.37
2022-08-26T07:24:07.198Z,62.96
2022-08-26T07:26:33.672Z,62.49
2022-08-26T07:29:01.701Z,62.93
2022-08-26T07:31:36.009Z,63.11
2022-08-26T07:34:09.277Z,63.42
2022-08-26T07:36:36.437Z,63.04
2022-08-26T07:39:03.092Z,63.15
2022-08-26T07:44:00.949Z,63.37
2022-08-26T07:46:30.426Z,63.23
2022-08-26T07:48:57.970Z,63.46
2022-08-26T07:51:25.471Z,63.27
2022-08-26T07:53:52.901Z,63.32
2022-08-26T07:56:21.691Z,63.21
2022-08-26T07:58:51.698Z,63.30
2022-08-26T08:01:24.319Z,63.26
2022-08-26T08:03:53.821Z,63.34
2022-08-26T08:06:23.065Z,63.40
2022-08-26T08:08:54.327Z,63.46
2022-08-26T08:11:21.413Z,63.82
2022-08-26T08:13:50.064Z,63.38
2022-08-26T08:16:24.593Z,63.33
2022-08-26T08:18:51.428Z,63.89
2022-08-26T08:21:22.225Z,63.85
2022-08-26T08:23:55.402Z,63.51
2022-08-26T08:26:22.999Z,63.61
2022-08-26T08:28:49.964Z,63.75
2022-08-26T08:31:55.884Z,63.52
2022-08-26T08:34:15.851Z,63.62
2022-08-26T08:36:46.195Z,63.84
2022-08-26T08:39:13.604Z,63.93
2022-08-26T08:41:59.630Z,63.92
2022-08-26T08:47:06.135Z,63.62
2022-08-26T08:49:34.341Z,63.78
2022-08-26T08:52:36.720Z,63.70
2022-08-26T08:55:06.127Z,63.71
2022-08-26T08:58:01.988Z,63.79
2022-08-26T09:00:46.460Z,63.54
2022-08-26T09:03:30.982Z,63.42
2022-08-26T09:06:00.220Z,63.38
2022-08-26T09:08:35.049Z,63.55
2022-08-26T09:11:03.578Z,63.21
2022-08-26T09:13:31.570Z,63.28
2022-08-26T09:16:04.197Z,63.40
2022-08-26T09:19:03.971Z,63.12
2022-08-26T09:21:31.596Z,63.26
2022-08-26T09:23:58.646Z,62.90
2022-08-26T09:26:30.873Z,62.85
2022-08-26T09:29:03.216Z,62.99
2022-08-26T09:31:32.649Z,63.11
2022-08-26T09:34:12.060Z,62.39
2022-08-26T09:36:53.652Z,62.64
2022-08-26T09:39:23.928Z,62.71
2022-08-26T09:42:02.761Z,62.38
2022-08-26T09:44:29.304Z,62.81
2022-08-26T09:46:59.973Z,62.68
2022-08-26T09:49:35.613Z,62.43
2022-08-26T09:52:04.762Z,61.90
2022-08-26T09:54:33.510Z,62.06
2022-08-26T09:57:16.134Z,61.80
2022-08-26T09:59:43.107Z,61.86
2022-08-26T10:02:28.860Z,61.53
2022-08-26T10:04:57.661Z,61.70
2022-08-26T10:07:40.317Z,61.24
2022-08-26T10:10:12.510Z,61.54
2022-08-26T10:12:58.595Z,61.37
2022-08-26T10:15:27.817Z,61.44
2022-08-26T10:18:02.973Z,61.13
2022-08-26T10:20:37.234Z,61.18
2022-08-26T10:23:18.539Z,60.71
2022-08-26T10:25:51.217Z,60.47
2022-08-26T10:28:21.568Z,60.40
2022-08-26T10:30:59.458Z,59.99
2022-08-26T10:33:26.038Z,60.33
2022-08-26T10:35:57.504Z,60.08
2022-08-26T10:38:34.208Z,60.18
2022-08-26T10:41:20.433Z,59.99
2022-08-26T10:43:59.842Z,59.42
2022-08-26T10:46:36.867Z,59.29
2022-08-26T10:49:08.624Z,59.22
2022-08-26T10:51:42.122Z,59.00
2022-08-26T10:54:16.340Z,58.71
2022-08-26T10:57:09.824Z,58.85
2022-08-26T10:59:50.714Z,58.59
2022-08-26T11:02:38.403Z,58.84
2022-08-26T11:05:15.352Z,58.47
2022-08-26T11:07:45.980Z,58.41
2022-08-26T11:10:18.414Z,58.46
2022-08-26T11:12:45.353Z,58.28
2022-08-26T11:15:24.725Z,57.91
2022-08-26T11:17:51.316Z,58.17
2022-08-26T11:20:29.930Z,57.89
2022-08-26T11:23:28.138Z,57.74
2022-08-26T11:26:10.067Z,57.50
2022-08-26T11:28:49.573Z,57.47
2022-08-26T11:31:19.201Z,57.33
2022-08-26T11:33:59.884Z,57.31
2022-08-26T11:36:41.686Z,57.28
2022-08-26T11:39:36.904Z,57.38
2022-08-26T11:42:37.325Z,57.27
2022-08-26T11:45:17.613Z,57.04
2022-08-26T11:47:44.666Z,57.15
2022-08-26T11:50:19.782Z,56.79
2022-08-26T11:53:01.583Z,56.71
2022-08-26T11:55:33.433Z,56.87
2022-08-26T11:58:04.810Z,56.58
2022-08-26T12:00:58.447Z,56.73
2022-08-26T12:03:38.937Z,56.65
2022-08-26T12:06:15.032Z,56.03
2022-08-26T12:08:44.351Z,56.06
2022-08-26T12:11:33.275Z,55.88
2022-08-26T12:14:03.835Z,55.59
2022-08-26T12:16:36.776Z,56.29
2022-08-26T12:19:25.229Z,55.95
2022-08-26T12:22:03.457Z,56.04
2022-08-26T12:24:30.328Z,55.61
2022-08-26T12:27:30.802Z,55.53
2022-08-26T12:30:12.403Z,55.76
2022-08-26T12:32:55.145Z,55.39
2022-08-26T12:35:24.874Z,55.27
2022-08-26T12:37:53.778Z,54.79
2022-08-26T12:40:46.546Z,54.69
2022-08-26T12:43:34.273Z,54.75
2022-08-26T12:46:00.937Z,54.88
2022-08-26T12:48:32.106Z,54.99
2022-08-26T12:50:59.817Z,54.61
2022-08-26T12:53:30.262Z,54.48
2022-08-26T12:56:04.555Z,54.45
2022-08-26T12:58:32.375Z,54.53
2022-08-26T13:01:22.222Z,54.23
2022-08-26T13:03:49.410Z,54.28
2022-08-26T13:06:29.425Z,53.84
2022-08-26T13:09:10.051Z,54.14
2022-08-26T13:11:39.430Z,53.60
2022-08-26T13:14:12.549Z,53.69
2022-08-26T13:16:48.233Z,53.44
2022-08-26T13:19:29.464Z,53.80
2022-08-26T13:21:58.354Z,53.66
2022-08-26T13:24:38.661Z,53.72
2022-08-26T13:27:08.080Z,53.33
2022-08-26T13:29:35.195Z,53.52
2022-08-26T13:32:03.105Z,53.48
2022-08-26T13:34:30.006Z,53.53
2022-08-26T13:36:58.298Z,53.65
2022-08-26T13:39:25.967Z,53.58
2022-08-26T13:41:53.183Z,53.68
2022-08-26T13:44:20.065Z,53.21
2022-08-26T13:46:46.549Z,53.54
2022-08-26T13:49:13.291Z,53.46
2022-08-26T13:51:40.691Z,53.55
2022-08-26T13:54:07.681Z,53.48
2022-08-26T13:56:35.438Z,53.58
2022-08-26T13:59:02.934Z,53.30
2022-08-26T14:01:31.279Z,53.42
2022-08-26T14:03:58.627Z,52.89
2022-08-26T14:06:25.324Z,52.93
2022-08-26T14:08:51.955Z,52.75
2022-08-26T14:11:18.594Z,53.03
2022-08-26T14:13:45.068Z,52.80
2022-08-26T14:16:19.495Z,52.81
2022-08-26T14:18:50.522Z,53.00
2022-08-26T14:21:17.363Z,52.98
2022-08-26T14:23:43.859Z,53.13
2022-08-26T14:26:11.956Z,53.02
2022-08-26T14:28:54.615Z,53.09
2022-08-26T14:31:23.368Z,52.26
2022-08-26T14:33:49.987Z,51.76
2022-08-26T14:36:28.219Z,52.16
2022-08-26T14:38:58.011Z,52.30
2022-08-26T14:41:25.288Z,52.08
2022-08-26T14:43:57.976Z,52.26
2022-08-26T14:46:28.659Z,51.88
2022-08-26T14:49:01.744Z,51.44
2022-08-26T14:51:29.577Z,51.47
2022-08-26T14:54:14.154Z,51.36
2022-08-26T14:56:46.364Z,51.49
2022-08-26T14:59:14.633Z,51.76
2022-08-26T15:01:41.189Z,51.68
2022-08-26T15:04:07.740Z,51.60
2022-08-26T15:06:35.260Z,52.44
2022-08-26T15:09:02.212Z,52.59
2022-08-26T15:11:29.157Z,53.38
2022-08-26T15:13:55.774Z,53.43
2022-08-26T15:16:22.736Z,53.71
2022-08-26T15:18:51.207Z,53.62
2022-08-26T15:21:19.353Z,53.61
2022-08-26T15:23:47.782Z,53.53
2022-08-26T15:26:15.548Z,53.64
2022-08-26T15:28:42.008Z,53.46
2022-08-26T15:31:08.767Z,53.43
2022-08-26T15:33:36.432Z,53.43
2022-08-26T15:36:04.294Z,53.54
2022-08-26T15:38:32.495Z,53.74
2022-08-26T15:41:02.917Z,53.78
2022-08-26T15:43:29.733Z,53.93
2022-08-26T15:45:57.716Z,54.08
2022-08-26T15:48:24.986Z,54.76
2022-08-26T15:51:00.461Z,55.71
2022-08-26T15:53:30.119Z,55.73
2022-08-26T15:55:58.172Z,55.50
2022-08-26T15:58:27.131Z,55.34
2022-08-26T16:00:54.949Z,55.66
2022-08-26T16:03:21.779Z,55.81
2022-08-26T16:05:48.427Z,56.10
2022-08-26T16:08:15.424Z,55.92
2022-08-26T16:10:49.797Z,55.87
2022-08-26T16:13:19.809Z,55.70
2022-08-26T16:15:48.089Z,56.32
2022-08-26T16:18:15.492Z,56.49
2022-08-26T16:21:12.879Z,56.26
2022-08-26T16:23:37.440Z,56.27
2022-08-26T16:26:12.076Z,56.29
2022-08-26T16:28:39.922Z,56.41
2022-08-26T16:31:07.121Z,56.58
2022-08-26T16:33:33.564Z,56.85
2022-08-26T16:36:00.006Z,56.76
2022-08-26T16:38:26.588Z,56.70
2022-08-26T16:40:53.021Z,56.49
2022-08-26T16:43:19.699Z,56.95
2022-08-26T16:45:46.166Z,57.08
2022-08-26T16:48:12.655Z,57.08
2022-08-26T16:50:40.685Z,56.58
2022-08-26T16:53:07.709Z,56.77
2022-08-26T16:55:34.784Z,56.70
2022-08-26T16:58:01.448Z,57.14
2022-08-26T17:00:31.137Z,56.31
2022-08-26T17:03:00.234Z,56.42
2022-08-26T17:05:28.036Z,56.48
2022-08-26T17:07:56.556Z,55.85
2022-08-26T17:10:24.561Z,55.63
2022-08-26T17:12:51.776Z,55.79
2022-08-26T17:15:19.022Z,55.48
2022-08-26T17:17:45.495Z,55.33
2022-08-26T17:20:15.613Z,55.79
2022-08-26T17:22:45.639Z,55.56
2022-08-26T17:25:15.560Z,55.42
2022-08-26T17:27:42.950Z,55.34
2022-08-26T17:30:10.090Z,55.08
2022-08-26T17:32:36.803Z,55.27
2022-08-26T17:35:04.736Z,55.53
2022-08-26T17:37:31.294Z,55.33
2022-08-26T17:39:58.381Z,54.90
2022-08-26T17:42:31.373Z,54.99
2022-08-26T17:44:58.389Z,55.57
2022-08-26T17:47:25.003Z,55.63
2022-08-26T17:49:51.661Z,55.28
2022-08-26T17:52:18.165Z,55.47
2022-08-26T17:54:44.846Z,55.02
2022-08-26T17:57:11.361Z,54.96
2022-08-26T17:59:38.585Z,55.15
2022-08-26T18:02:07.485Z,55.31
2022-08-26T18:04:34.237Z,55.34
2022-08-26T18:07:01.248Z,55.12
2022-08-26T18:09:31.146Z,54.98
2022-08-26T18:11:58.444Z,55.30
2022-08-26T18:14:25.212Z,54.98
2022-08-26T18:16:52.105Z,55.16
2022-08-26T18:19:18.790Z,55.17
2022-08-26T18:21:45.309Z,54.99
2022-08-26T18:24:13.995Z,55.26
2022-08-26T18:26:44.473Z,55.18
2022-08-26T18:29:11.168Z,55.20
2022-08-26T18:31:37.604Z,55.09
2022-08-26T18:34:04.184Z,54.82
2022-08-26T18:36:34.118Z,54.96
2022-08-26T18:39:00.984Z,55.09
2022-08-26T18:41:30.359Z,55.20
2022-08-26T18:43:57.868Z,54.91
2022-08-26T18:46:26.484Z,54.82
2022-08-26T18:48:56.141Z,54.71
2022-08-26T18:51:26.020Z,54.82
2022-08-26T18:53:53.325Z,54.94
2022-08-26T18:56:19.872Z,54.67
2022-08-26T18:58:46.512Z,54.50
2022-08-26T19:01:13.711Z,54.53
2022-08-26T19:03:40.576Z,54.59
2022-08-26T19:06:07.311Z,55.06
2022-08-26T19:08:33.763Z,54.76
2022-08-26T19:11:00.690Z,55.00
2022-08-26T19:13:27.138Z,54.97
2022-08-26T19:15:53.636Z,54.89
2022-08-26T19:18:20.075Z,54.82
2022-08-26T19:20:47.816Z,54.86
2022-08-26T19:23:31.037Z,55.15
2022-08-26T19:25:58.538Z,55.07
2022-08-26T19:28:24.946Z,55.30
2022-08-26T19:30:53.378Z,55.36
2022-08-26T19:33:20.115Z,55.27
2022-08-26T19:35:46.639Z,55.18
2022-08-26T19:38:13.625Z,55.07
2022-08-26T19:40:40.367Z,55.48
2022-08-26T19:43:07.120Z,55.41
2022-08-26T19:45:34.582Z,55.20
2022-08-26T19:48:01.146Z,55.53
2022-08-26T19:50:31.062Z,55.22
2022-08-26T19:52:58.498Z,55.28
2022-08-26T19:55:26.129Z,55.20
2022-08-26T19:57:53.706Z,55.20
2022-08-26T20:00:23.760Z,55.50
2022-08-26T20:02:51.750Z,55.28
2022-08-26T20:05:20.907Z,55.97
2022-08-26T20:07:47.897Z,55.91
2022-08-26T20:10:16.556Z,55.50
2022-08-26T20:12:43.588Z,55.65
2022-08-26T20:15:12.002Z,55.92
2022-08-26T20:17:39.374Z,55.76
2022-08-26T20:20:33.193Z,55.99
2022-08-26T20:23:01.297Z,56.36
2022-08-26T20:25:28.305Z,57.10
2022-08-26T20:27:54.737Z,56.50
2022-08-26T20:30:21.365Z,56.14
2022-08-26T20:32:48.376Z,56.09
2022-08-26T20:35:14.928Z,55.95
2022-08-26T20:37:42.364Z,56.21
2022-08-26T20:40:12.464Z,56.38
2022-08-26T20:42:39.031Z,56.46
2022-08-26T20:45:07.231Z,56.48
2022-08-26T20:47:34.390Z,56.43
2022-08-26T20:50:02.331Z,57.47
2022-08-26T20:52:28.855Z,58.70
2022-08-26T20:54:55.510Z,57.58
2022-08-26T20:57:22.243Z,57.69
2022-08-26T20:59:49.029Z,57.49
2022-08-26T21:02:15.970Z,57.42
2022-08-26T21:04:42.515Z,57.13
2022-08-26T21:07:09.001Z,58.20
2022-08-26T21:09:35.503Z,57.96
2022-08-26T21:12:02.322Z,57.96
2022-08-26T21:14:28.839Z,57.88
2022-08-26T21:16:56.460Z,58.51
2022-08-26T21:19:23.128Z,58.07
2022-08-26T21:21:50.242Z,58.49
2022-08-26T21:24:17.363Z,59.26
2022-08-26T21:26:43.964Z,58.72
2022-08-26T21:29:10.593Z,58.59
2022-08-26T21:31:40.975Z,58.36
2022-08-26T21:34:11.560Z,58.75
2022-08-26T21:36:37.988Z,58.45
2022-08-26T21:39:09.284Z,58.66
2022-08-26T21:41:38.084Z,58.30
2022-08-26T21:44:04.542Z,60.24
2022-08-26T21:46:31.022Z,58.92
2022-08-26T21:49:00.145Z,58.86
2022-08-26T21:51:29.489Z,59.35
2022-08-26T21:53:57.906Z,60.89
2022-08-26T21:56:27.443Z,60.98
2022-08-26T21:58:55.669Z,60.39
2022-08-26T22:01:25.195Z,61.62
2022-08-26T22:03:52.592Z,61.41
2022-08-26T22:06:21.716Z,60.70
2022-08-26T22:08:48.977Z,60.12
2022-08-26T22:11:15.705Z,60.32
2022-08-26T22:13:43.365Z,60.79
2022-08-26T22:16:11.378Z,60.58
2022-08-26T22:18:38.889Z,59.96
2022-08-26T22:21:08.802Z,59.97
2022-08-26T22:23:37.366Z,60.14
2022-08-26T22:26:06.749Z,60.47
2022-08-26T22:28:34.412Z,60.48
2022-08-26T22:31:01.855Z,60.25
2022-08-26T22:33:28.934Z,60.69
2022-08-26T22:35:55.899Z,60.06
2022-08-26T22:38:23.746Z,60.15
2022-08-26T22:40:55.940Z,60.95
2022-08-26T22:43:28.677Z,60.41
2022-08-26T22:45:57.157Z,60.22
2022-08-26T22:48:26.391Z,60.01
2022-08-26T22:50:59.608Z,60.55
2022-08-26T22:53:26.925Z,60.14
2022-08-26T22:55:54.292Z,60.80
2022-08-26T22:58:21.419Z,60.60
2022-08-26T23:00:57.625Z,60.49
2022-08-26T23:03:26.411Z,60.62
2022-08-26T23:05:53.000Z,61.16
2022-08-26T23:08:20.090Z,61.39
2022-08-26T23:10:47.705Z,61.45
2022-08-26T23:13:15.281Z,61.63
2022-08-26T23:15:42.689Z,62.75
2022-08-26T23:18:10.186Z,62.46
2022-08-26T23:20:37.717Z,63.55
2022-08-26T23:23:04.866Z,63.40
2022-08-26T23:25:32.418Z,63.27
2022-08-26T23:28:00.757Z,63.89
2022-08-26T23:30:29.619Z,64.21
2022-08-26T23:32:56.118Z,64.12
2022-08-26T23:35:22.608Z,63.91
2022-08-26T23:37:52.402Z,63.83
2022-08-26T23:40:29.529Z,64.21
2022-08-26T23:42:57.780Z,63.61
2022-08-26T23:45:25.837Z,63.30
2022-08-26T23:47:53.386Z,63.38
2022-08-26T23:50:48.219Z,63.22
2022-08-26T23:53:20.766Z,63.80
2022-08-26T23:55:51.968Z,64.52
2022-08-26T23:58:20.434Z,64.43
